createdAt,value
2023-01-19T00:01:19.107Z,1.05
2023-01-19T00:03:47.009Z,1.08
2023-01-19T00:06:14.897Z,1.09
2023-01-19T00:08:45.788Z,1.11
2023-01-19T00:11:13.867Z,1.13
2023-01-19T00:13:41.921Z,1.14
2023-01-19T00:16:09.870Z,1.16
2023-01-19T00:18:37.875Z,1.19
2023-01-19T00:21:05.963Z,1.19
2023-01-19T00:23:33.831Z,1.21
2023-01-19T00:26:01.671Z,1.19
2023-01-19T00:28:29.554Z,1.20
2023-01-19T00:30:57.407Z,1.20
2023-01-19T00:33:25.290Z,1.18
2023-01-19T00:35:54.927Z,1.17
2023-01-19T00:38:22.901Z,1.15
2023-01-19T00:40:50.820Z,1.11
2023-01-19T00:43:18.761Z,1.11
2023-01-19T00:45:46.787Z,1.09
2023-01-19T00:48:14.724Z,1.07
2023-01-19T00:50:42.593Z,1.06
2023-01-19T00:53:10.411Z,1.08
2023-01-19T00:55:38.288Z,1.10
2023-01-19T00:58:07.241Z,1.12
2023-01-19T01:00:35.155Z,1.13
2023-01-19T01:03:03.929Z,1.11
2023-01-19T01:05:32.134Z,1.09
2023-01-19T01:08:00.096Z,1.08
2023-01-19T01:10:29.107Z,1.03
2023-01-19T01:12:58.339Z,1.03
2023-01-19T01:15:27.706Z,1.05
2023-01-19T01:17:55.935Z,1.09
2023-01-19T01:20:26.963Z,1.11
2023-01-19T01:22:55.482Z,1.14
2023-01-19T01:25:25.023Z,1.13
2023-01-19T01:27:53.551Z,1.15
2023-01-19T01:30:21.428Z,1.19
2023-01-19T01:32:49.483Z,1.18
2023-01-19T01:35:17.423Z,1.16
2023-01-19T01:37:45.445Z,1.13
2023-01-19T01:40:14.635Z,1.12
2023-01-19T01:42:42.764Z,1.09
2023-01-19T01:45:26.633Z,1.07
2023-01-19T01:47:56.769Z,1.03
2023-01-19T01:50:29.662Z,0.99
2023-01-19T01:53:10.940Z,0.97
2023-01-19T01:55:49.059Z,0.97
2023-01-19T01:58:17.107Z,1.01
2023-01-19T02:01:01.146Z,1.05
2023-01-19T02:03:29.425Z,1.09
2023-01-19T02:05:59.500Z,1.11
2023-01-19T02:08:53.630Z,1.09
2023-01-19T02:11:38.081Z,1.07
2023-01-19T02:14:06.687Z,1.06
2023-01-19T02:16:34.896Z,1.05
2023-01-19T02:19:04.250Z,1.05
2023-01-19T02:21:58.471Z,1.11
2023-01-19T02:24:27.314Z,1.17
2023-01-19T02:26:56.167Z,1.22
2023-01-19T02:29:25.216Z,1.23
2023-01-19T02:31:54.405Z,1.23
2023-01-19T02:34:22.786Z,1.25
2023-01-19T02:36:50.665Z,1.29
2023-01-19T02:39:20.178Z,1.30
2023-01-19T02:41:52.352Z,1.28
2023-01-19T02:44:21.258Z,1.25
2023-01-19T02:46:49.303Z,1.24
2023-01-19T02:49:17.210Z,1.26
2023-01-19T02:51:45.237Z,1.22
2023-01-19T02:54:18.507Z,1.20
2023-01-19T02:57:02.426Z,1.19
2023-01-19T02:59:46.073Z,1.20
2023-01-19T03:02:14.093Z,1.20
2023-01-19T03:04:58.134Z,1.23
2023-01-19T03:07:34.492Z,1.27
2023-01-19T03:10:08.061Z,1.31
2023-01-19T03:12:40.903Z,1.41
2023-01-19T03:15:17.666Z,1.47
2023-01-19T03:17:48.795Z,1.53
2023-01-19T03:20:19.242Z,1.57
2023-01-19T03:22:49.389Z,1.59
2023-01-19T03:25:17.956Z,1.62
2023-01-19T03:27:47.076Z,1.65
2023-01-19T03:30:21.780Z,1.66
2023-01-19T03:33:00.013Z,1.66
2023-01-19T03:35:31.710Z,1.65
2023-01-19T03:38:01.261Z,1.64
2023-01-19T03:40:30.345Z,1.65
2023-01-19T03:42:59.716Z,1.65
2023-01-19T03:45:28.039Z,1.58
2023-01-19T03:47:56.315Z,1.55
2023-01-19T03:50:28.911Z,1.53
2023-01-19T03:53:01.382Z,1.50
2023-01-19T03:55:29.769Z,1.46
2023-01-19T03:57:57.642Z,1.44
2023-01-19T04:00:25.985Z,1.43
2023-01-19T04:02:55.470Z,1.41
2023-01-19T04:05:23.662Z,1.38
2023-01-19T04:07:52.173Z,1.35
2023-01-19T04:10:20.375Z,1.33
2023-01-19T04:12:48.896Z,1.28
2023-01-19T04:15:17.881Z,1.26
2023-01-19T04:17:45.739Z,1.26
2023-01-19T04:20:13.818Z,1.26
2023-01-19T04:22:42.524Z,1.17
2023-01-19T04:25:10.617Z,1.08
2023-01-19T04:27:38.544Z,1.02
2023-01-19T04:30:06.763Z,1.01
2023-01-19T04:32:34.620Z,1.05
2023-01-19T04:35:02.583Z,1.12
2023-01-19T04:37:30.497Z,1.16
2023-01-19T04:39:58.325Z,1.20
2023-01-19T04:42:27.532Z,1.27
2023-01-19T04:44:55.414Z,1.34
2023-01-19T04:47:23.286Z,1.34
2023-01-19T04:49:51.149Z,1.35
2023-01-19T04:52:19.534Z,1.33
2023-01-19T04:54:47.700Z,1.33
2023-01-19T04:57:15.625Z,1.34
2023-01-19T04:59:43.551Z,1.39
2023-01-19T05:02:11.872Z,1.42
2023-01-19T05:04:40.292Z,1.42
2023-01-19T05:07:08.180Z,1.38
2023-01-19T05:09:36.010Z,1.30
2023-01-19T05:12:04.191Z,1.22
2023-01-19T05:14:32.054Z,1.16
2023-01-19T05:17:00.516Z,1.11
2023-01-19T05:19:28.841Z,1.07
2023-01-19T05:21:57.281Z,1.04
2023-01-19T05:24:25.355Z,1.03
2023-01-19T05:26:53.263Z,1.06
2023-01-19T05:29:21.159Z,1.09
2023-01-19T05:31:49.189Z,1.09
2023-01-19T05:34:17.402Z,1.08
2023-01-19T05:36:45.348Z,1.08
2023-01-19T05:39:13.231Z,1.08
2023-01-19T05:41:42.119Z,1.10
2023-01-19T05:44:10.286Z,1.17
2023-01-19T05:46:38.859Z,1.24
2023-01-19T05:49:07.436Z,1.31
2023-01-19T05:51:37.966Z,1.34
2023-01-19T05:54:06.471Z,1.32
2023-01-19T05:56:35.524Z,1.33
2023-01-19T05:59:03.585Z,1.30
2023-01-19T06:01:31.594Z,1.33
2023-01-19T06:03:59.478Z,1.36
2023-01-19T06:06:27.348Z,1.38
2023-01-19T06:08:55.173Z,1.35
2023-01-19T06:11:23.096Z,1.34
2023-01-19T06:13:51.022Z,1.34
2023-01-19T06:16:18.980Z,1.32
2023-01-19T06:18:47.180Z,1.34
2023-01-19T06:21:15.079Z,1.34
2023-01-19T06:23:43.066Z,1.28
2023-01-19T06:26:11.271Z,1.26
2023-01-19T06:28:39.374Z,1.23
2023-01-19T06:31:07.239Z,1.20
2023-01-19T06:33:35.265Z,1.19
2023-01-19T06:36:03.619Z,1.18
2023-01-19T06:38:32.854Z,1.23
2023-01-19T06:41:03.225Z,1.27
2023-01-19T06:43:31.525Z,1.28
2023-01-19T06:46:00.564Z,1.30
2023-01-19T06:48:28.619Z,1.36
2023-01-19T06:50:58.627Z,1.41
2023-01-19T06:53:29.099Z,1.45
2023-01-19T06:56:03.699Z,1.53
2023-01-19T06:58:34.762Z,1.64
2023-01-19T07:02:02.069Z,1.70
2023-01-19T07:04:49.762Z,1.65
2023-01-19T07:07:17.665Z,1.62
2023-01-19T07:09:45.487Z,1.64
2023-01-19T07:12:13.746Z,1.66
2023-01-19T07:14:41.591Z,1.67
2023-01-19T07:17:09.669Z,1.64
2023-01-19T07:19:37.561Z,1.63
2023-01-19T07:22:05.447Z,1.63
2023-01-19T07:24:34.852Z,1.66
2023-01-19T07:27:03.018Z,1.74
2023-01-19T07:29:30.984Z,1.79
2023-01-19T07:32:03.338Z,1.83
2023-01-19T07:34:33.375Z,1.84
2023-01-19T07:37:01.333Z,1.89
2023-01-19T07:39:30.652Z,1.94
2023-01-19T07:41:58.407Z,1.98
2023-01-19T07:44:27.205Z,2.00
2023-01-19T07:46:55.267Z,2.06
2023-01-19T07:49:23.160Z,2.12
2023-01-19T07:51:54.394Z,2.19
2023-01-19T07:54:22.975Z,2.23
2023-01-19T07:56:55.339Z,2.24
2023-01-19T07:59:32.446Z,2.26
2023-01-19T08:02:03.326Z,2.27
2023-01-19T08:04:34.219Z,2.24
2023-01-19T08:07:03.623Z,2.20
2023-01-19T08:09:34.206Z,2.17
2023-01-19T08:12:22.878Z,2.20
2023-01-19T08:14:51.935Z,2.25
2023-01-19T08:17:20.504Z,2.33
2023-01-19T08:19:49.000Z,2.39
2023-01-19T08:22:17.197Z,2.44
2023-01-19T08:24:45.030Z,2.46
2023-01-19T08:27:12.910Z,2.44
2023-01-19T08:29:40.837Z,2.47
2023-01-19T08:32:09.004Z,2.53
2023-01-19T08:34:36.985Z,2.59
2023-01-19T08:37:04.917Z,2.68
2023-01-19T08:39:33.241Z,2.78
2023-01-19T08:42:01.146Z,2.83
2023-01-19T08:44:29.011Z,2.87
2023-01-19T08:46:56.892Z,2.86
2023-01-19T08:49:24.749Z,2.79
2023-01-19T08:51:52.640Z,2.83
2023-01-19T08:54:21.942Z,2.95
2023-01-19T08:56:50.068Z,3.02
2023-01-19T08:59:20.306Z,3.06
2023-01-19T09:01:50.216Z,3.09
2023-01-19T09:04:18.300Z,3.07
2023-01-19T09:06:46.353Z,3.05
2023-01-19T09:09:14.513Z,3.06
2023-01-19T09:11:42.468Z,2.99
2023-01-19T09:14:10.270Z,2.95
2023-01-19T09:16:40.467Z,2.90
2023-01-19T09:19:09.111Z,2.85
2023-01-19T09:21:39.079Z,2.83
2023-01-19T09:24:10.310Z,2.87
2023-01-19T09:26:41.525Z,2.91
2023-01-19T09:29:13.121Z,2.91
2023-01-19T09:31:47.870Z,2.92
2023-01-19T09:34:17.078Z,3.03
2023-01-19T09:36:46.256Z,3.12
2023-01-19T09:39:15.012Z,3.18
2023-01-19T09:41:54.315Z,3.23
2023-01-19T09:44:32.265Z,3.29
2023-01-19T09:47:01.832Z,3.32
2023-01-19T09:49:38.958Z,3.32
2023-01-19T09:52:09.857Z,3.29
2023-01-19T09:54:53.640Z,3.28
2023-01-19T09:57:22.489Z,3.24
2023-01-19T09:59:51.376Z,3.25
2023-01-19T10:02:27.440Z,3.29
2023-01-19T10:05:06.680Z,3.28
2023-01-19T10:07:53.216Z,3.26
2023-01-19T10:10:22.243Z,3.26
2023-01-19T10:12:51.645Z,3.29
2023-01-19T10:15:26.458Z,3.28
2023-01-19T10:18:00.649Z,3.21
2023-01-19T10:20:34.957Z,3.18
2023-01-19T10:23:05.762Z,3.26
2023-01-19T10:25:33.847Z,3.35
2023-01-19T10:28:01.805Z,3.40
2023-01-19T10:30:30.951Z,3.41
2023-01-19T10:32:59.341Z,3.44
2023-01-19T10:35:29.749Z,3.46
2023-01-19T10:38:01.342Z,3.41
2023-01-19T10:40:29.239Z,3.42
2023-01-19T10:42:57.269Z,3.42
2023-01-19T10:45:26.888Z,3.40
2023-01-19T10:47:57.453Z,3.39
2023-01-19T10:50:29.404Z,3.37
2023-01-19T10:52:59.860Z,3.41
2023-01-19T10:55:31.243Z,3.42
2023-01-19T10:58:00.030Z,3.49
2023-01-19T11:00:34.101Z,3.60
2023-01-19T11:03:02.473Z,3.68
2023-01-19T11:05:32.162Z,3.66
2023-01-19T11:08:00.258Z,3.66
2023-01-19T11:10:29.753Z,3.58
2023-01-19T11:12:58.096Z,3.56
2023-01-19T11:15:33.703Z,3.62
2023-01-19T11:18:05.463Z,3.66
2023-01-19T11:20:44.080Z,3.68
2023-01-19T11:23:15.880Z,3.64
2023-01-19T11:25:46.132Z,3.61
2023-01-19T11:28:20.236Z,3.57
2023-01-19T11:31:05.269Z,3.61
2023-01-19T11:33:35.330Z,3.61
2023-01-19T11:36:05.127Z,3.57
2023-01-19T11:38:40.771Z,3.60
2023-01-19T11:41:15.630Z,3.63
2023-01-19T11:43:49.474Z,3.66
2023-01-19T11:46:17.982Z,3.67
2023-01-19T11:48:49.964Z,3.71
2023-01-19T11:51:20.150Z,3.76
2023-01-19T11:53:51.241Z,3.73
2023-01-19T11:56:22.987Z,3.79
2023-01-19T11:58:50.784Z,3.84
2023-01-19T12:01:34.814Z,3.90
2023-01-19T12:04:18.789Z,3.93
2023-01-19T12:06:48.376Z,3.93
2023-01-19T12:09:21.035Z,3.89
2023-01-19T12:11:53.532Z,3.89
2023-01-19T12:14:24.317Z,3.88
2023-01-19T12:16:54.728Z,3.89
2023-01-19T12:19:27.683Z,3.91
2023-01-19T12:21:56.136Z,3.91
2023-01-19T12:24:29.289Z,3.89
2023-01-19T12:26:57.961Z,3.87
2023-01-19T12:29:32.386Z,3.83
2023-01-19T12:32:17.584Z,3.72
2023-01-19T12:34:55.750Z,3.71
2023-01-19T12:37:39.581Z,3.73
2023-01-19T12:40:13.381Z,3.73
2023-01-19T12:42:44.887Z,3.76
2023-01-19T12:45:23.400Z,3.81
2023-01-19T12:47:53.139Z,3.90
2023-01-19T12:50:24.017Z,3.98
2023-01-19T12:53:01.886Z,4.06
2023-01-19T12:55:35.141Z,4.06
2023-01-19T12:58:19.213Z,4.05
2023-01-19T13:00:48.484Z,4.03
2023-01-19T13:03:16.460Z,4.01
2023-01-19T13:05:44.490Z,4.01
2023-01-19T13:08:12.612Z,4.01
2023-01-19T13:10:57.635Z,3.99
2023-01-19T13:13:27.257Z,3.99
2023-01-19T13:15:56.161Z,3.95
2023-01-19T13:18:26.148Z,3.93
2023-01-19T13:20:56.948Z,3.92
2023-01-19T13:23:26.676Z,3.85
2023-01-19T13:26:14.813Z,3.81
2023-01-19T13:28:43.741Z,3.80
2023-01-19T13:31:13.039Z,3.77
2023-01-19T13:33:44.184Z,3.76
2023-01-19T13:36:38.395Z,3.74
2023-01-19T13:39:08.044Z,3.70
2023-01-19T13:41:37.636Z,3.70
2023-01-19T13:44:09.451Z,3.72
2023-01-19T13:46:38.689Z,3.75
2023-01-19T13:49:22.693Z,3.77
2023-01-19T13:52:13.829Z,3.76
2023-01-19T13:54:50.174Z,3.70
2023-01-19T13:57:22.278Z,3.64
2023-01-19T14:00:06.705Z,3.61
2023-01-19T14:02:57.035Z,3.60
2023-01-19T14:05:30.151Z,3.58
2023-01-19T14:08:14.931Z,3.58
2023-01-19T14:10:47.036Z,3.60
2023-01-19T14:13:15.202Z,3.59
2023-01-19T14:15:43.997Z,3.57
2023-01-19T14:18:17.824Z,3.55
2023-01-19T14:20:52.318Z,3.53
2023-01-19T14:23:36.079Z,3.47
2023-01-19T14:26:04.225Z,3.43
2023-01-19T14:28:35.258Z,3.41
2023-01-19T14:31:17.693Z,3.38
2023-01-19T14:33:47.007Z,3.34
2023-01-19T14:36:17.589Z,3.31
2023-01-19T14:38:47.167Z,3.32
2023-01-19T14:41:25.641Z,3.30
2023-01-19T14:43:56.037Z,3.28
2023-01-19T14:46:24.616Z,3.25
2023-01-19T14:48:56.295Z,3.25
2023-01-19T14:51:25.150Z,3.23
2023-01-19T14:53:56.792Z,3.21
2023-01-19T14:56:30.353Z,3.22
2023-01-19T14:58:59.369Z,3.24
2023-01-19T15:01:28.598Z,3.26
2023-01-19T15:03:57.035Z,3.28
2023-01-19T15:06:25.831Z,3.32
2023-01-19T15:08:54.355Z,3.38
2023-01-19T15:11:22.676Z,3.41
2023-01-19T15:13:50.595Z,3.41
2023-01-19T15:16:19.123Z,3.41
2023-01-19T15:18:47.118Z,3.42
2023-01-19T15:21:16.536Z,3.43
2023-01-19T15:23:44.345Z,3.41
2023-01-19T15:26:15.654Z,3.40
2023-01-19T15:28:43.979Z,3.38
2023-01-19T15:31:16.056Z,3.35
2023-01-19T15:33:44.083Z,3.32
2023-01-19T15:36:17.988Z,3.28
2023-01-19T15:38:46.657Z,3.24
2023-01-19T15:41:17.810Z,3.21
2023-01-19T15:43:45.612Z,3.13
2023-01-19T15:46:15.530Z,3.01
2023-01-19T15:48:43.354Z,2.96
2023-01-19T15:51:14.847Z,2.94
2023-01-19T15:53:43.185Z,2.95
2023-01-19T15:56:29.772Z,2.95
2023-01-19T15:58:58.718Z,2.94
2023-01-19T16:01:35.103Z,2.98
2023-01-19T16:04:04.474Z,3.02
2023-01-19T16:06:32.703Z,3.06
2023-01-19T16:09:04.250Z,3.12
2023-01-19T16:11:34.000Z,3.15
2023-01-19T16:14:02.330Z,3.15
2023-01-19T16:16:30.279Z,3.16
2023-01-19T16:18:58.344Z,3.16
2023-01-19T16:21:26.682Z,3.17
2023-01-19T16:23:55.279Z,3.16
2023-01-19T16:26:39.020Z,3.12
2023-01-19T16:29:08.941Z,3.04
2023-01-19T16:31:37.797Z,2.98
2023-01-19T16:34:05.983Z,2.93
2023-01-19T16:36:34.799Z,2.85
2023-01-19T16:39:05.186Z,2.78
2023-01-19T16:41:33.684Z,2.72
2023-01-19T16:44:01.962Z,2.66
2023-01-19T16:46:35.141Z,2.62
2023-01-19T16:49:04.496Z,2.61
2023-01-19T16:51:32.935Z,2.59
2023-01-19T16:54:00.817Z,2.59
2023-01-19T16:56:28.671Z,2.59
2023-01-19T16:58:58.993Z,2.60
2023-01-19T17:01:28.314Z,2.59
2023-01-19T17:03:56.738Z,2.58
2023-01-19T17:06:25.279Z,2.55
2023-01-19T17:08:53.626Z,2.55
2023-01-19T17:11:23.809Z,2.56
2023-01-19T17:17:53.384Z,2.68
2023-01-19T17:20:21.217Z,2.78
2023-01-19T17:22:49.130Z,2.88
2023-01-19T17:25:17.098Z,2.94
2023-01-19T17:27:44.944Z,2.98
2023-01-19T17:30:13.513Z,3.04
2023-01-19T17:32:42.527Z,3.07
2023-01-19T17:35:10.505Z,3.04
2023-01-19T17:37:38.377Z,3.03
2023-01-19T17:40:06.667Z,2.96
2023-01-19T17:42:38.342Z,2.87
2023-01-19T17:45:06.706Z,2.82
2023-01-19T17:47:34.500Z,2.73
2023-01-19T17:50:02.304Z,2.64
2023-01-19T17:52:30.249Z,2.57
2023-01-19T17:54:58.466Z,2.60
2023-01-19T17:57:26.320Z,2.61
2023-01-19T17:59:54.442Z,2.60
2023-01-19T18:02:24.411Z,2.56
2023-01-19T18:04:52.916Z,2.55
2023-01-19T18:07:20.830Z,2.56
2023-01-19T18:09:48.596Z,2.56
2023-01-19T18:12:16.388Z,2.57
2023-01-19T18:14:44.286Z,2.59
2023-01-19T18:17:12.134Z,2.59
2023-01-19T18:19:40.045Z,2.59
2023-01-19T18:22:08.011Z,2.57
2023-01-19T18:24:35.944Z,2.54
2023-01-19T18:27:03.806Z,2.47
2023-01-19T18:29:31.785Z,2.37
2023-01-19T18:31:59.743Z,2.31
2023-01-19T18:34:27.760Z,2.27
2023-01-19T18:36:55.677Z,2.28
2023-01-19T18:39:23.785Z,2.30
2023-01-19T18:41:51.675Z,2.30
2023-01-19T18:44:19.454Z,2.30
2023-01-19T18:46:47.644Z,2.34
2023-01-19T18:49:15.693Z,2.44
2023-01-19T18:51:43.527Z,2.48
2023-01-19T18:54:11.819Z,2.52
2023-01-19T18:56:39.734Z,2.57
2023-01-19T18:59:07.616Z,2.62
2023-01-19T19:01:36.475Z,2.62
2023-01-19T19:04:04.689Z,2.61
2023-01-19T19:06:32.458Z,2.62
2023-01-19T19:09:00.441Z,2.60
2023-01-19T19:11:28.291Z,2.52
2023-01-19T19:13:57.980Z,2.40
2023-01-19T19:16:26.321Z,2.30
2023-01-19T19:18:54.343Z,2.21
2023-01-19T19:21:23.996Z,2.17
2023-01-19T19:23:55.598Z,2.18
2023-01-19T19:26:24.220Z,2.13
2023-01-19T19:28:52.385Z,2.13
2023-01-19T19:31:21.423Z,2.16
2023-01-19T19:33:50.742Z,2.18
2023-01-19T19:36:19.837Z,2.17
2023-01-19T19:38:48.883Z,2.16
2023-01-19T19:41:19.350Z,2.19
2023-01-19T19:43:47.418Z,2.19
2023-01-19T19:46:16.100Z,2.26
2023-01-19T19:48:44.143Z,2.29
2023-01-19T19:51:18.424Z,2.23
2023-01-19T19:53:48.401Z,2.15
2023-01-19T19:56:21.218Z,2.03
2023-01-19T19:58:50.213Z,1.93
2023-01-19T20:01:19.770Z,1.91
2023-01-19T20:03:48.273Z,1.90
2023-01-19T20:06:18.071Z,1.88
2023-01-19T20:08:46.557Z,1.86
2023-01-19T20:11:15.828Z,1.85
2023-01-19T20:13:44.261Z,1.85
2023-01-19T20:16:14.016Z,1.86
2023-01-19T20:18:43.458Z,1.89
2023-01-19T20:21:11.519Z,1.91
2023-01-19T20:23:39.820Z,1.86
2023-01-19T20:26:09.053Z,1.83
2023-01-19T20:28:37.387Z,1.81
2023-01-19T20:31:09.767Z,1.78
2023-01-19T20:33:37.610Z,1.77
2023-01-19T20:36:06.131Z,1.76
2023-01-19T20:38:34.188Z,1.76
2023-01-19T20:41:02.122Z,1.76
2023-01-19T20:43:30.525Z,1.72
2023-01-19T20:45:58.902Z,1.70
2023-01-19T20:48:27.269Z,1.68
2023-01-19T20:50:59.397Z,1.69
2023-01-19T20:53:27.869Z,1.70
2023-01-19T20:55:55.753Z,1.69
2023-01-19T20:58:23.747Z,1.70
2023-01-19T21:00:51.724Z,1.72
2023-01-19T21:03:19.694Z,1.76
2023-01-19T21:05:48.407Z,1.82
2023-01-19T21:08:18.120Z,1.90
2023-01-19T21:10:46.027Z,1.95
2023-01-19T21:13:14.140Z,1.99
2023-01-19T21:15:42.319Z,2.05
2023-01-19T21:18:10.187Z,2.12
2023-01-19T21:20:38.218Z,2.09
2023-01-19T21:23:06.006Z,2.02
2023-01-19T21:25:33.945Z,1.99
2023-01-19T21:28:01.710Z,2.01
2023-01-19T21:30:29.570Z,2.03
2023-01-19T21:32:57.515Z,2.08
2023-01-19T21:35:25.358Z,2.09
2023-01-19T21:37:53.331Z,2.02
2023-01-19T21:40:21.420Z,2.01
2023-01-19T21:42:49.272Z,2.00
2023-01-19T21:45:17.197Z,1.98
2023-01-19T21:47:45.006Z,1.96
2023-01-19T21:50:12.914Z,1.95
2023-01-19T21:52:40.962Z,1.94
2023-01-19T21:55:09.029Z,1.93
2023-01-19T21:57:36.932Z,1.92
2023-01-19T22:00:06.402Z,1.92
2023-01-19T22:02:38.901Z,1.93
2023-01-19T22:05:07.504Z,1.96
2023-01-19T22:07:35.452Z,2.00
2023-01-19T22:10:04.135Z,2.05
2023-01-19T22:12:32.618Z,2.15
2023-01-19T22:15:00.461Z,2.24
2023-01-19T22:17:28.357Z,2.31
2023-01-19T22:19:56.200Z,2.42
2023-01-19T22:22:24.001Z,2.48
2023-01-19T22:24:52.261Z,2.48
2023-01-19T22:27:20.116Z,2.51
2023-01-19T22:29:47.956Z,2.54
2023-01-19T22:32:15.878Z,2.59
2023-01-19T22:34:43.729Z,2.61
2023-01-19T22:37:11.543Z,2.60
2023-01-19T22:39:39.380Z,2.59
2023-01-19T22:42:07.259Z,2.60
2023-01-19T22:44:35.080Z,2.57
2023-01-19T22:47:03.011Z,2.53
2023-01-19T22:49:30.965Z,2.53
2023-01-19T22:51:58.824Z,2.49
2023-01-19T22:54:26.797Z,2.45
2023-01-19T22:56:54.685Z,2.44
2023-01-19T22:59:22.495Z,2.43
2023-01-19T23:01:50.478Z,2.37
2023-01-19T23:04:18.497Z,2.32
2023-01-19T23:06:50.360Z,2.32
2023-01-19T23:09:18.605Z,2.29
2023-01-19T23:11:51.177Z,2.28
2023-01-19T23:14:20.797Z,2.28
2023-01-19T23:16:48.680Z,2.29
2023-01-19T23:19:17.376Z,2.28
2023-01-19T23:21:45.850Z,2.28
2023-01-19T23:24:13.744Z,2.26
2023-01-19T23:26:41.740Z,2.25
2023-01-19T23:29:11.927Z,2.22
2023-01-19T23:31:42.359Z,2.20
2023-01-19T23:34:12.026Z,2.20
2023-01-19T23:36:41.300Z,2.18
2023-01-19T23:39:16.819Z,2.19
2023-01-19T23:41:44.976Z,2.16
2023-01-19T23:44:13.192Z,2.03
2023-01-19T23:46:41.108Z,1.89
2023-01-19T23:49:08.929Z,1.76
2023-01-19T23:51:36.852Z,1.62
2023-01-19T23:54:04.748Z,1.54
2023-01-19T23:56:34.118Z,1.52
2023-01-19T23:59:06.092Z,1.49
